sensor_id;sensor_type;location;lat;lon;timestamp;P1;durP1;ratioP1;P2;durP2;ratioP2
19434;SDS011;9853;50.848;4.108;2023-06-22T00:00:12;14.32;;;5.07;;
19434;SDS011;9853;50.848;4.108;2023-06-22T00:02:13;9.27;;;5.07;;
19434;SDS011;9853;50.848;4.108;2023-06-22T00:04:14;10.07;;;5.22;;
19434;SDS011;9853;50.848;4.108;2023-06-22T00:06:15;11.40;;;5.35;;
19434;SDS011;9853;50.848;4.108;2023-06-22T00:08:16;11.60;;;5.18;;
19434;SDS011;9853;50.848;4.108;2023-06-22T00:10:17;14.00;;;5.72;;
19434;SDS011;9853;50.848;4.108;2023-06-22T00:12:18;12.95;;;5.85;;
19434;SDS011;9853;50.848;4.108;2023-06-22T00:14:19;10.68;;;5.32;;
19434;SDS011;9853;50.848;4.108;2023-06-22T00:16:20;9.52;;;5.60;;
19434;SDS011;9853;50.848;4.108;2023-06-22T00:18:20;12.18;;;5.93;;
19434;SDS011;9853;50.848;4.108;2023-06-22T00:20:21;10.23;;;5.72;;
19434;SDS011;9853;50.848;4.108;2023-06-22T00:22:22;11.32;;;5.55;;
19434;SDS011;9853;50.848;4.108;2023-06-22T00:24:28;10.98;;;5.55;;
19434;SDS011;9853;50.848;4.108;2023-06-22T00:26:29;12.70;;;6.32;;
19434;SDS011;9853;50.848;4.108;2023-06-22T00:28:30;7.88;;;5.43;;
19434;SDS011;9853;50.848;4.108;2023-06-22T00:30:31;12.95;;;5.45;;
19434;SDS011;9853;50.848;4.108;2023-06-22T00:32:32;12.18;;;5.78;;
19434;SDS011;9853;50.848;4.108;2023-06-22T00:34:33;11.30;;;5.72;;
19434;SDS011;9853;50.848;4.108;2023-06-22T00:36:34;9.85;;;5.15;;
19434;SDS011;9853;50.848;4.108;2023-06-22T00:38:37;12.60;;;6.05;;
19434;SDS011;9853;50.848;4.108;2023-06-22T00:40:40;9.98;;;5.53;;
19434;SDS011;9853;50.848;4.108;2023-06-22T00:42:41;9.85;;;6.00;;
19434;SDS011;9853;50.848;4.108;2023-06-22T00:44:42;8.43;;;5.55;;
19434;SDS011;9853;50.848;4.108;2023-06-22T00:46:43;13.00;;;6.10;;
19434;SDS011;9853;50.848;4.108;2023-06-22T00:48:44;13.75;;;6.15;;
19434;SDS011;9853;50.848;4.108;2023-06-22T00:50:45;10.55;;;5.53;;
19434;SDS011;9853;50.848;4.108;2023-06-22T00:52:51;11.13;;;6.00;;
19434;SDS011;9853;50.848;4.108;2023-06-22T00:54:53;12.52;;;5.80;;
19434;SDS011;9853;50.848;4.108;2023-06-22T00:56:57;9.93;;;5.45;;
19434;SDS011;9853;50.848;4.108;2023-06-22T00:58:58;9.13;;;5.15;;
19434;SDS011;9853;50.848;4.108;2023-06-22T01:01:00;13.13;;;5.53;;
19434;SDS011;9853;50.848;4.108;2023-06-22T01:03:02;11.68;;;4.80;;
19434;SDS011;9853;50.848;4.108;2023-06-22T01:05:03;8.60;;;4.65;;
19434;SDS011;9853;50.848;4.108;2023-06-22T01:09:08;11.65;;;5.25;;
19434;SDS011;9853;50.848;4.108;2023-06-22T01:11:32;8.30;;;4.72;;
19434;SDS011;9853;50.848;4.108;2023-06-22T01:15:52;7.82;;;4.75;;
19434;SDS011;9853;50.848;4.108;2023-06-22T01:18:03;11.63;;;5.10;;
19434;SDS011;9853;50.848;4.108;2023-06-22T01:20:06;9.55;;;4.97;;
19434;SDS011;9853;50.848;4.108;2023-06-22T01:22:10;7.63;;;5.05;;
19434;SDS011;9853;50.848;4.108;2023-06-22T01:24:22;6.40;;;4.70;;
19434;SDS011;9853;50.848;4.108;2023-06-22T01:26:42;10.50;;;5.38;;
19434;SDS011;9853;50.848;4.108;2023-06-22T01:29:02;11.05;;;4.70;;
19434;SDS011;9853;50.848;4.108;2023-06-22T01:31:04;10.65;;;4.95;;
19434;SDS011;9853;50.848;4.108;2023-06-22T01:33:06;8.70;;;4.35;;
19434;SDS011;9853;50.848;4.108;2023-06-22T01:35:10;9.82;;;4.40;;
19434;SDS011;9853;50.848;4.108;2023-06-22T01:37:12;8.38;;;4.30;;
19434;SDS011;9853;50.848;4.108;2023-06-22T01:39:13;7.25;;;4.80;;
19434;SDS011;9853;50.848;4.108;2023-06-22T01:41:16;9.18;;;4.90;;
19434;SDS011;9853;50.848;4.108;2023-06-22T01:43:17;8.05;;;4.88;;
19434;SDS011;9853;50.848;4.108;2023-06-22T01:45:19;13.45;;;5.50;;
19434;SDS011;9853;50.848;4.108;2023-06-22T01:47:20;8.77;;;5.05;;
19434;SDS011;9853;50.848;4.108;2023-06-22T01:49:22;8.95;;;5.20;;
19434;SDS011;9853;50.848;4.108;2023-06-22T01:51:23;8.30;;;5.15;;
19434;SDS011;9853;50.848;4.108;2023-06-22T01:53:24;10.65;;;5.43;;
19434;SDS011;9853;50.848;4.108;2023-06-22T01:55:26;9.65;;;4.93;;
19434;SDS011;9853;50.848;4.108;2023-06-22T01:57:26;8.05;;;4.18;;
19434;SDS011;9853;50.848;4.108;2023-06-22T02:00:01;12.77;;;4.25;;
19434;SDS011;9853;50.848;4.108;2023-06-22T02:02:15;6.68;;;4.15;;
19434;SDS011;9853;50.848;4.108;2023-06-22T02:04:20;9.65;;;4.43;;
19434;SDS011;9853;50.848;4.108;2023-06-22T02:06:27;7.72;;;4.28;;
19434;SDS011;9853;50.848;4.108;2023-06-22T02:08:49;8.95;;;4.90;;
19434;SDS011;9853;50.848;4.108;2023-06-22T02:10:55;6.80;;;5.07;;
19434;SDS011;9853;50.848;4.108;2023-06-22T02:12:58;8.55;;;5.40;;
19434;SDS011;9853;50.848;4.108;2023-06-22T02:15:00;11.48;;;5.47;;
19434;SDS011;9853;50.848;4.108;2023-06-22T02:17:01;9.88;;;5.20;;
19434;SDS011;9853;50.848;4.108;2023-06-22T02:19:04;9.25;;;5.72;;
19434;SDS011;9853;50.848;4.108;2023-06-22T02:21:07;11.77;;;4.95;;
19434;SDS011;9853;50.848;4.108;2023-06-22T02:23:08;8.05;;;5.18;;
19434;SDS011;9853;50.848;4.108;2023-06-22T02:25:09;10.23;;;4.63;;
19434;SDS011;9853;50.848;4.108;2023-06-22T02:27:10;7.72;;;4.72;;
19434;SDS011;9853;50.848;4.108;2023-06-22T02:29:11;7.35;;;4.38;;
19434;SDS011;9853;50.848;4.108;2023-06-22T02:31:12;11.25;;;5.20;;
19434;SDS011;9853;50.848;4.108;2023-06-22T02:33:12;12.15;;;6.03;;
19434;SDS011;9853;50.848;4.108;2023-06-22T02:35:13;11.02;;;5.70;;
19434;SDS011;9853;50.848;4.108;2023-06-22T02:37:14;11.77;;;5.53;;
19434;SDS011;9853;50.848;4.108;2023-06-22T02:39:15;9.18;;;5.47;;
19434;SDS011;9853;50.848;4.108;2023-06-22T02:41:15;7.90;;;5.20;;
19434;SDS011;9853;50.848;4.108;2023-06-22T02:43:19;12.05;;;6.10;;
19434;SDS011;9853;50.848;4.108;2023-06-22T02:45:20;13.00;;;5.53;;
19434;SDS011;9853;50.848;4.108;2023-06-22T02:47:21;9.85;;;5.75;;
19434;SDS011;9853;50.848;4.108;2023-06-22T02:49:22;8.38;;;5.78;;
19434;SDS011;9853;50.848;4.108;2023-06-22T02:51:23;9.73;;;5.55;;
19434;SDS011;9853;50.848;4.108;2023-06-22T02:53:24;10.82;;;5.65;;
19434;SDS011;9853;50.848;4.108;2023-06-22T02:55:25;7.53;;;5.82;;
19434;SDS011;9853;50.848;4.108;2023-06-22T02:57:30;11.60;;;5.82;;
19434;SDS011;9853;50.848;4.108;2023-06-22T02:59:30;7.85;;;5.15;;
19434;SDS011;9853;50.848;4.108;2023-06-22T03:01:37;11.85;;;5.35;;
19434;SDS011;9853;50.848;4.108;2023-06-22T03:03:42;9.35;;;5.60;;
19434;SDS011;9853;50.848;4.108;2023-06-22T03:05:42;9.55;;;5.57;;
19434;SDS011;9853;50.848;4.108;2023-06-22T03:07:43;7.63;;;5.63;;
19434;SDS011;9853;50.848;4.108;2023-06-22T03:09:44;9.02;;;5.55;;
19434;SDS011;9853;50.848;4.108;2023-06-22T03:11:45;10.32;;;5.82;;
19434;SDS011;9853;50.848;4.108;2023-06-22T03:13:46;9.38;;;5.65;;
19434;SDS011;9853;50.848;4.108;2023-06-22T03:15:47;10.25;;;5.32;;
19434;SDS011;9853;50.848;4.108;2023-06-22T03:17:47;15.43;;;6.10;;
19434;SDS011;9853;50.848;4.108;2023-06-22T03:19:48;9.93;;;5.55;;
19434;SDS011;9853;50.848;4.108;2023-06-22T03:21:49;10.23;;;5.97;;
19434;SDS011;9853;50.848;4.108;2023-06-22T03:23:50;8.75;;;6.03;;
19434;SDS011;9853;50.848;4.108;2023-06-22T03:25:51;13.88;;;6.25;;
19434;SDS011;9853;50.848;4.108;2023-06-22T03:27:51;10.52;;;5.88;;
19434;SDS011;9853;50.848;4.108;2023-06-22T03:29:52;9.00;;;6.10;;
19434;SDS011;9853;50.848;4.108;2023-06-22T03:31:53;10.85;;;5.93;;
19434;SDS011;9853;50.848;4.108;2023-06-22T03:33:54;12.38;;;6.80;;
19434;SDS011;9853;50.848;4.108;2023-06-22T03:35:57;13.43;;;6.53;;
19434;SDS011;9853;50.848;4.108;2023-06-22T03:37:57;13.77;;;6.63;;
19434;SDS011;9853;50.848;4.108;2023-06-22T03:39:58;9.60;;;6.20;;
19434;SDS011;9853;50.848;4.108;2023-06-22T03:41:59;9.15;;;6.45;;
19434;SDS011;9853;50.848;4.108;2023-06-22T03:44:00;10.80;;;6.32;;
19434;SDS011;9853;50.848;4.108;2023-06-22T03:46:01;9.00;;;6.15;;
19434;SDS011;9853;50.848;4.108;2023-06-22T03:48:01;12.63;;;6.72;;
19434;SDS011;9853;50.848;4.108;2023-06-22T03:50:02;10.70;;;6.28;;
19434;SDS011;9853;50.848;4.108;2023-06-22T03:52:04;14.00;;;7.00;;
19434;SDS011;9853;50.848;4.108;2023-06-22T03:54:05;11.18;;;6.68;;
19434;SDS011;9853;50.848;4.108;2023-06-22T03:56:06;12.07;;;7.15;;
19434;SDS011;9853;50.848;4.108;2023-06-22T03:58:06;12.73;;;6.95;;
19434;SDS011;9853;50.848;4.108;2023-06-22T04:00:09;11.05;;;5.97;;
19434;SDS011;9853;50.848;4.108;2023-06-22T04:02:14;12.70;;;6.78;;
19434;SDS011;9853;50.848;4.108;2023-06-22T04:04:15;9.70;;;5.95;;
19434;SDS011;9853;50.848;4.108;2023-06-22T04:06:17;9.25;;;5.72;;
19434;SDS011;9853;50.848;4.108;2023-06-22T04:08:18;10.43;;;5.93;;
19434;SDS011;9853;50.848;4.108;2023-06-22T04:10:19;9.77;;;6.20;;
19434;SDS011;9853;50.848;4.108;2023-06-22T04:12:19;10.05;;;6.35;;
19434;SDS011;9853;50.848;4.108;2023-06-22T04:14:20;9.45;;;5.80;;
19434;SDS011;9853;50.848;4.108;2023-06-22T04:16:21;8.02;;;5.88;;
19434;SDS011;9853;50.848;4.108;2023-06-22T04:18:22;9.57;;;5.10;;
19434;SDS011;9853;50.848;4.108;2023-06-22T04:20:23;7.95;;;5.38;;
19434;SDS011;9853;50.848;4.108;2023-06-22T04:22:26;11.15;;;6.10;;
19434;SDS011;9853;50.848;4.108;2023-06-22T04:24:27;13.68;;;5.85;;
19434;SDS011;9853;50.848;4.108;2023-06-22T04:26:28;13.63;;;6.22;;
19434;SDS011;9853;50.848;4.108;2023-06-22T04:28:28;25.00;;;7.18;;
19434;SDS011;9853;50.848;4.108;2023-06-22T04:30:29;8.40;;;6.28;;
19434;SDS011;9853;50.848;4.108;2023-06-22T04:32:33;8.70;;;5.65;;
19434;SDS011;9853;50.848;4.108;2023-06-22T04:34:36;7.38;;;6.05;;
19434;SDS011;9853;50.848;4.108;2023-06-22T04:36:38;12.20;;;6.50;;
19434;SDS011;9853;50.848;4.108;2023-06-22T04:38:41;14.07;;;6.00;;
19434;SDS011;9853;50.848;4.108;2023-06-22T04:40:42;14.32;;;6.72;;
19434;SDS011;9853;50.848;4.108;2023-06-22T04:42:43;12.65;;;7.35;;
19434;SDS011;9853;50.848;4.108;2023-06-22T04:44:52;14.55;;;7.38;;
19434;SDS011;9853;50.848;4.108;2023-06-22T04:46:54;21.08;;;8.20;;
19434;SDS011;9853;50.848;4.108;2023-06-22T04:49:08;14.80;;;7.95;;
19434;SDS011;9853;50.848;4.108;2023-06-22T04:51:12;16.70;;;7.97;;
19434;SDS011;9853;50.848;4.108;2023-06-22T04:53:13;14.52;;;7.55;;
19434;SDS011;9853;50.848;4.108;2023-06-22T04:55:14;12.18;;;7.60;;
19434;SDS011;9853;50.848;4.108;2023-06-22T04:57:18;12.68;;;7.43;;
19434;SDS011;9853;50.848;4.108;2023-06-22T04:59:19;12.00;;;7.40;;
19434;SDS011;9853;50.848;4.108;2023-06-22T05:01:19;11.02;;;8.02;;
19434;SDS011;9853;50.848;4.108;2023-06-22T05:03:22;18.83;;;7.85;;
19434;SDS011;9853;50.848;4.108;2023-06-22T05:05:25;13.38;;;7.90;;
19434;SDS011;9853;50.848;4.108;2023-06-22T05:07:26;17.48;;;8.57;;
19434;SDS011;9853;50.848;4.108;2023-06-22T05:09:27;17.77;;;8.07;;
19434;SDS011;9853;50.848;4.108;2023-06-22T05:11:28;18.27;;;8.07;;
19434;SDS011;9853;50.848;4.108;2023-06-22T05:13:29;14.27;;;7.75;;
19434;SDS011;9853;50.848;4.108;2023-06-22T05:15:30;18.30;;;7.80;;
19434;SDS011;9853;50.848;4.108;2023-06-22T05:17:37;15.40;;;8.32;;
19434;SDS011;9853;50.848;4.108;2023-06-22T05:19:42;16.55;;;8.73;;
19434;SDS011;9853;50.848;4.108;2023-06-22T05:21:45;16.30;;;8.35;;
19434;SDS011;9853;50.848;4.108;2023-06-22T05:23:46;14.15;;;7.10;;
19434;SDS011;9853;50.848;4.108;2023-06-22T05:25:46;13.40;;;7.53;;
19434;SDS011;9853;50.848;4.108;2023-06-22T05:27:47;10.07;;;6.90;;
19434;SDS011;9853;50.848;4.108;2023-06-22T05:29:48;15.80;;;7.47;;
19434;SDS011;9853;50.848;4.108;2023-06-22T05:31:49;15.77;;;7.72;;
19434;SDS011;9853;50.848;4.108;2023-06-22T05:33:50;14.80;;;7.47;;
19434;SDS011;9853;50.848;4.108;2023-06-22T05:35:52;13.18;;;8.23;;
19434;SDS011;9853;50.848;4.108;2023-06-22T05:37:53;20.35;;;8.07;;
19434;SDS011;9853;50.848;4.108;2023-06-22T05:39:53;14.50;;;7.93;;
19434;SDS011;9853;50.848;4.108;2023-06-22T05:41:55;10.60;;;8.23;;
19434;SDS011;9853;50.848;4.108;2023-06-22T05:43:56;17.55;;;8.75;;
19434;SDS011;9853;50.848;4.108;2023-06-22T05:45:56;15.40;;;8.60;;
19434;SDS011;9853;50.848;4.108;2023-06-22T05:47:58;13.98;;;7.93;;
19434;SDS011;9853;50.848;4.108;2023-06-22T05:49:58;14.30;;;9.10;;
19434;SDS011;9853;50.848;4.108;2023-06-22T05:51:59;11.40;;;8.80;;
19434;SDS011;9853;50.848;4.108;2023-06-22T05:54:00;15.23;;;8.57;;
19434;SDS011;9853;50.848;4.108;2023-06-22T05:56:01;13.23;;;8.43;;
19434;SDS011;9853;50.848;4.108;2023-06-22T05:58:01;15.52;;;8.43;;
19434;SDS011;9853;50.848;4.108;2023-06-22T06:00:03;14.45;;;8.50;;
19434;SDS011;9853;50.848;4.108;2023-06-22T06:02:08;18.15;;;8.63;;
19434;SDS011;9853;50.848;4.108;2023-06-22T06:04:08;19.65;;;9.02;;
19434;SDS011;9853;50.848;4.108;2023-06-22T06:06:09;17.52;;;9.25;;
19434;SDS011;9853;50.848;4.108;2023-06-22T06:08:11;14.25;;;8.82;;
19434;SDS011;9853;50.848;4.108;2023-06-22T06:10:12;17.63;;;9.20;;
19434;SDS011;9853;50.848;4.108;2023-06-22T06:12:13;21.77;;;10.18;;
19434;SDS011;9853;50.848;4.108;2023-06-22T06:14:14;17.55;;;9.70;;
19434;SDS011;9853;50.848;4.108;2023-06-22T06:16:14;14.85;;;9.90;;
19434;SDS011;9853;50.848;4.108;2023-06-22T06:18:15;14.90;;;10.10;;
19434;SDS011;9853;50.848;4.108;2023-06-22T06:20:18;19.17;;;11.05;;
19434;SDS011;9853;50.848;4.108;2023-06-22T06:22:21;18.90;;;10.80;;
19434;SDS011;9853;50.848;4.108;2023-06-22T06:24:23;17.33;;;10.90;;
19434;SDS011;9853;50.848;4.108;2023-06-22T06:26:24;19.98;;;11.43;;
19434;SDS011;9853;50.848;4.108;2023-06-22T06:28:33;20.23;;;11.60;;
19434;SDS011;9853;50.848;4.108;2023-06-22T06:30:34;18.65;;;11.05;;
19434;SDS011;9853;50.848;4.108;2023-06-22T06:32:37;20.95;;;12.57;;
19434;SDS011;9853;50.848;4.108;2023-06-22T06:34:38;15.98;;;11.50;;
19434;SDS011;9853;50.848;4.108;2023-06-22T06:36:39;18.38;;;11.50;;
19434;SDS011;9853;50.848;4.108;2023-06-22T06:38:39;18.33;;;11.90;;
19434;SDS011;9853;50.848;4.108;2023-06-22T06:40:40;20.95;;;12.52;;
19434;SDS011;9853;50.848;4.108;2023-06-22T06:42:41;21.50;;;12.50;;
19434;SDS011;9853;50.848;4.108;2023-06-22T06:44:45;20.13;;;12.18;;
19434;SDS011;9853;50.848;4.108;2023-06-22T06:46:45;19.08;;;12.75;;
19434;SDS011;9853;50.848;4.108;2023-06-22T06:48:46;21.67;;;12.00;;
19434;SDS011;9853;50.848;4.108;2023-06-22T06:50:47;18.52;;;13.15;;
19434;SDS011;9853;50.848;4.108;2023-06-22T06:52:48;20.63;;;12.70;;
19434;SDS011;9853;50.848;4.108;2023-06-22T06:54:50;20.02;;;13.13;;
19434;SDS011;9853;50.848;4.108;2023-06-22T06:56:52;19.38;;;13.30;;
19434;SDS011;9853;50.848;4.108;2023-06-22T06:58:52;22.38;;;12.88;;
19434;SDS011;9853;50.848;4.108;2023-06-22T07:00:54;20.85;;;13.75;;
19434;SDS011;9853;50.848;4.108;2023-06-22T07:02:55;21.75;;;13.38;;
19434;SDS011;9853;50.848;4.108;2023-06-22T07:04:55;23.17;;;13.63;;
19434;SDS011;9853;50.848;4.108;2023-06-22T07:06:56;19.40;;;13.30;;
19434;SDS011;9853;50.848;4.108;2023-06-22T07:08:59;20.58;;;14.80;;
19434;SDS011;9853;50.848;4.108;2023-06-22T07:10:59;19.20;;;13.40;;
19434;SDS011;9853;50.848;4.108;2023-06-22T07:13:01;22.00;;;14.63;;
19434;SDS011;9853;50.848;4.108;2023-06-22T07:15:02;21.45;;;14.27;;
19434;SDS011;9853;50.848;4.108;2023-06-22T07:17:04;22.67;;;13.98;;
19434;SDS011;9853;50.848;4.108;2023-06-22T07:19:05;20.08;;;14.38;;
19434;SDS011;9853;50.848;4.108;2023-06-22T07:21:05;26.38;;;14.55;;
19434;SDS011;9853;50.848;4.108;2023-06-22T07:23:07;29.25;;;15.05;;
19434;SDS011;9853;50.848;4.108;2023-06-22T07:25:07;19.08;;;14.63;;
19434;SDS011;9853;50.848;4.108;2023-06-22T07:27:09;21.65;;;15.15;;
19434;SDS011;9853;50.848;4.108;2023-06-22T07:29:12;20.17;;;14.98;;
19434;SDS011;9853;50.848;4.108;2023-06-22T07:31:13;23.00;;;15.25;;
19434;SDS011;9853;50.848;4.108;2023-06-22T07:33:13;22.58;;;16.25;;
19434;SDS011;9853;50.848;4.108;2023-06-22T07:35:14;24.85;;;16.05;;
19434;SDS011;9853;50.848;4.108;2023-06-22T07:37:16;26.15;;;16.50;;
19434;SDS011;9853;50.848;4.108;2023-06-22T07:39:17;29.20;;;16.30;;
19434;SDS011;9853;50.848;4.108;2023-06-22T07:41:18;22.98;;;16.08;;
19434;SDS011;9853;50.848;4.108;2023-06-22T07:43:19;24.95;;;16.05;;
19434;SDS011;9853;50.848;4.108;2023-06-22T07:45:20;25.80;;;15.63;;
19434;SDS011;9853;50.848;4.108;2023-06-22T07:47:21;21.92;;;16.15;;
19434;SDS011;9853;50.848;4.108;2023-06-22T07:49:25;24.00;;;16.70;;
19434;SDS011;9853;50.848;4.108;2023-06-22T07:51:25;20.92;;;15.75;;
19434;SDS011;9853;50.848;4.108;2023-06-22T07:53:26;25.98;;;15.90;;
19434;SDS011;9853;50.848;4.108;2023-06-22T07:55:28;26.20;;;16.52;;
19434;SDS011;9853;50.848;4.108;2023-06-22T07:57:29;23.10;;;15.27;;
19434;SDS011;9853;50.848;4.108;2023-06-22T07:59:33;26.17;;;16.45;;
19434;SDS011;9853;50.848;4.108;2023-06-22T08:01:34;24.95;;;17.23;;
19434;SDS011;9853;50.848;4.108;2023-06-22T08:03:35;24.10;;;16.58;;
19434;SDS011;9853;50.848;4.108;2023-06-22T08:05:35;29.50;;;17.50;;
19434;SDS011;9853;50.848;4.108;2023-06-22T08:07:36;24.25;;;16.67;;
19434;SDS011;9853;50.848;4.108;2023-06-22T08:09:37;24.83;;;16.50;;
19434;SDS011;9853;50.848;4.108;2023-06-22T08:11:38;23.40;;;15.90;;
19434;SDS011;9853;50.848;4.108;2023-06-22T08:13:39;24.88;;;17.38;;
19434;SDS011;9853;50.848;4.108;2023-06-22T08:15:39;26.27;;;17.83;;
19434;SDS011;9853;50.848;4.108;2023-06-22T08:17:40;25.42;;;17.52;;
19434;SDS011;9853;50.848;4.108;2023-06-22T08:19:41;26.40;;;17.80;;
19434;SDS011;9853;50.848;4.108;2023-06-22T08:21:42;26.65;;;18.13;;
19434;SDS011;9853;50.848;4.108;2023-06-22T08:23:43;26.05;;;17.67;;
19434;SDS011;9853;50.848;4.108;2023-06-22T08:25:43;24.63;;;16.90;;
19434;SDS011;9853;50.848;4.108;2023-06-22T08:27:45;24.23;;;17.67;;
19434;SDS011;9853;50.848;4.108;2023-06-22T08:29:47;28.58;;;16.83;;
19434;SDS011;9853;50.848;4.108;2023-06-22T08:31:47;28.77;;;17.90;;
19434;SDS011;9853;50.848;4.108;2023-06-22T08:33:48;24.23;;;17.90;;
19434;SDS011;9853;50.848;4.108;2023-06-22T08:35:49;26.40;;;17.48;;
19434;SDS011;9853;50.848;4.108;2023-06-22T08:37:50;27.48;;;17.45;;
19434;SDS011;9853;50.848;4.108;2023-06-22T08:39:56;26.83;;;18.13;;
19434;SDS011;9853;50.848;4.108;2023-06-22T08:42:00;28.55;;;18.02;;
19434;SDS011;9853;50.848;4.108;2023-06-22T08:44:00;28.77;;;17.30;;
19434;SDS011;9853;50.848;4.108;2023-06-22T08:46:01;27.60;;;18.25;;
19434;SDS011;9853;50.848;4.108;2023-06-22T08:48:02;27.15;;;17.77;;
19434;SDS011;9853;50.848;4.108;2023-06-22T08:50:04;29.48;;;17.83;;
19434;SDS011;9853;50.848;4.108;2023-06-22T08:52:06;27.80;;;18.85;;
19434;SDS011;9853;50.848;4.108;2023-06-22T08:54:07;33.08;;;19.08;;
19434;SDS011;9853;50.848;4.108;2023-06-22T08:56:09;30.98;;;18.77;;
19434;SDS011;9853;50.848;4.108;2023-06-22T08:58:09;32.35;;;17.77;;
19434;SDS011;9853;50.848;4.108;2023-06-22T09:00:10;35.92;;;18.40;;
19434;SDS011;9853;50.848;4.108;2023-06-22T09:02:18;26.77;;;18.30;;
19434;SDS011;9853;50.848;4.108;2023-06-22T09:04:19;26.80;;;18.45;;
19434;SDS011;9853;50.848;4.108;2023-06-22T09:06:22;33.70;;;17.92;;
19434;SDS011;9853;50.848;4.108;2023-06-22T09:08:22;27.42;;;17.83;;
19434;SDS011;9853;50.848;4.108;2023-06-22T09:10:23;25.75;;;17.90;;
19434;SDS011;9853;50.848;4.108;2023-06-22T09:12:24;27.38;;;18.27;;
19434;SDS011;9853;50.848;4.108;2023-06-22T09:14:27;25.95;;;16.23;;
19434;SDS011;9853;50.848;4.108;2023-06-22T09:16:28;26.33;;;16.92;;
19434;SDS011;9853;50.848;4.108;2023-06-22T09:18:28;25.80;;;17.05;;
19434;SDS011;9853;50.848;4.108;2023-06-22T09:20:29;24.42;;;14.40;;
19434;SDS011;9853;50.848;4.108;2023-06-22T09:22:30;24.15;;;16.25;;
19434;SDS011;9853;50.848;4.108;2023-06-22T09:24:32;26.52;;;16.42;;
19434;SDS011;9853;50.848;4.108;2023-06-22T09:26:33;27.25;;;16.02;;
19434;SDS011;9853;50.848;4.108;2023-06-22T09:28:34;20.13;;;15.45;;
19434;SDS011;9853;50.848;4.108;2023-06-22T09:30:34;22.02;;;16.23;;
19434;SDS011;9853;50.848;4.108;2023-06-22T09:32:35;23.35;;;17.27;;
19434;SDS011;9853;50.848;4.108;2023-06-22T09:34:36;30.45;;;19.02;;
19434;SDS011;9853;50.848;4.108;2023-06-22T09:36:36;25.27;;;18.10;;
19434;SDS011;9853;50.848;4.108;2023-06-22T09:38:39;27.45;;;19.25;;
19434;SDS011;9853;50.848;4.108;2023-06-22T09:40:40;28.80;;;17.85;;
19434;SDS011;9853;50.848;4.108;2023-06-22T09:42:41;28.08;;;18.23;;
19434;SDS011;9853;50.848;4.108;2023-06-22T09:44:42;29.05;;;18.60;;
19434;SDS011;9853;50.848;4.108;2023-06-22T09:46:43;31.45;;;18.15;;
19434;SDS011;9853;50.848;4.108;2023-06-22T09:48:44;25.90;;;18.02;;
19434;SDS011;9853;50.848;4.108;2023-06-22T09:50:44;30.55;;;19.60;;
19434;SDS011;9853;50.848;4.108;2023-06-22T09:52:45;24.27;;;17.73;;
19434;SDS011;9853;50.848;4.108;2023-06-22T09:54:50;26.52;;;16.70;;
19434;SDS011;9853;50.848;4.108;2023-06-22T09:56:51;33.42;;;20.48;;
19434;SDS011;9853;50.848;4.108;2023-06-22T09:58:52;33.47;;;18.80;;
19434;SDS011;9853;50.848;4.108;2023-06-22T10:00:53;34.17;;;19.58;;
19434;SDS011;9853;50.848;4.108;2023-06-22T10:02:54;28.88;;;20.25;;
19434;SDS011;9853;50.848;4.108;2023-06-22T10:04:55;37.22;;;20.13;;
19434;SDS011;9853;50.848;4.108;2023-06-22T10:06:56;28.15;;;19.02;;
19434;SDS011;9853;50.848;4.108;2023-06-22T10:08:57;31.20;;;19.27;;
19434;SDS011;9853;50.848;4.108;2023-06-22T10:10:58;26.25;;;18.67;;
19434;SDS011;9853;50.848;4.108;2023-06-22T10:13:07;26.45;;;18.17;;
19434;SDS011;9853;50.848;4.108;2023-06-22T10:15:10;26.42;;;19.27;;
19434;SDS011;9853;50.848;4.108;2023-06-22T10:17:11;24.50;;;17.38;;
19434;SDS011;9853;50.848;4.108;2023-06-22T10:19:12;25.63;;;18.27;;
19434;SDS011;9853;50.848;4.108;2023-06-22T10:21:13;27.95;;;18.35;;
19434;SDS011;9853;50.848;4.108;2023-06-22T10:23:14;30.88;;;20.35;;
19434;SDS011;9853;50.848;4.108;2023-06-22T10:25:15;30.88;;;21.60;;
19434;SDS011;9853;50.848;4.108;2023-06-22T10:27:16;34.90;;;22.83;;
19434;SDS011;9853;50.848;4.108;2023-06-22T10:29:16;36.83;;;25.25;;
19434;SDS011;9853;50.848;4.108;2023-06-22T10:31:17;33.97;;;25.77;;
19434;SDS011;9853;50.848;4.108;2023-06-22T10:33:18;29.80;;;20.35;;
19434;SDS011;9853;50.848;4.108;2023-06-22T10:35:19;31.13;;;18.63;;
19434;SDS011;9853;50.848;4.108;2023-06-22T10:37:20;23.13;;;15.65;;
19434;SDS011;9853;50.848;4.108;2023-06-22T10:39:20;30.10;;;17.80;;
19434;SDS011;9853;50.848;4.108;2023-06-22T10:41:21;26.58;;;16.73;;
19434;SDS011;9853;50.848;4.108;2023-06-22T10:43:22;32.95;;;18.77;;
19434;SDS011;9853;50.848;4.108;2023-06-22T10:45:23;29.17;;;19.52;;
19434;SDS011;9853;50.848;4.108;2023-06-22T10:47:23;32.35;;;20.58;;
19434;SDS011;9853;50.848;4.108;2023-06-22T10:49:24;34.95;;;22.40;;
19434;SDS011;9853;50.848;4.108;2023-06-22T10:51:25;32.28;;;22.63;;
19434;SDS011;9853;50.848;4.108;2023-06-22T10:53:26;42.53;;;25.40;;
19434;SDS011;9853;50.848;4.108;2023-06-22T10:55:26;43.45;;;25.33;;
19434;SDS011;9853;50.848;4.108;2023-06-22T10:57:27;49.67;;;27.95;;
19434;SDS011;9853;50.848;4.108;2023-06-22T10:59:28;38.45;;;26.83;;
19434;SDS011;9853;50.848;4.108;2023-06-22T11:01:29;42.33;;;27.73;;
19434;SDS011;9853;50.848;4.108;2023-06-22T11:03:31;42.35;;;29.27;;
19434;SDS011;9853;50.848;4.108;2023-06-22T11:05:32;49.95;;;30.08;;
19434;SDS011;9853;50.848;4.108;2023-06-22T11:07:33;41.63;;;28.75;;
19434;SDS011;9853;50.848;4.108;2023-06-22T11:09:33;49.78;;;30.73;;
19434;SDS011;9853;50.848;4.108;2023-06-22T11:11:34;46.53;;;29.08;;
19434;SDS011;9853;50.848;4.108;2023-06-22T11:13:35;44.53;;;31.35;;
19434;SDS011;9853;50.848;4.108;2023-06-22T11:15:36;45.35;;;30.15;;
19434;SDS011;9853;50.848;4.108;2023-06-22T11:17:37;49.72;;;31.33;;
19434;SDS011;9853;50.848;4.108;2023-06-22T11:19:37;42.50;;;29.75;;
19434;SDS011;9853;50.848;4.108;2023-06-22T11:21:38;45.65;;;30.55;;
19434;SDS011;9853;50.848;4.108;2023-06-22T11:23:39;43.38;;;31.88;;
19434;SDS011;9853;50.848;4.108;2023-06-22T11:25:39;50.80;;;32.97;;
19434;SDS011;9853;50.848;4.108;2023-06-22T11:27:42;52.92;;;31.45;;
19434;SDS011;9853;50.848;4.108;2023-06-22T11:29:43;47.03;;;31.45;;
19434;SDS011;9853;50.848;4.108;2023-06-22T11:31:44;48.28;;;33.08;;
19434;SDS011;9853;50.848;4.108;2023-06-22T11:33:44;51.80;;;33.78;;
19434;SDS011;9853;50.848;4.108;2023-06-22T11:35:48;58.03;;;36.15;;
19434;SDS011;9853;50.848;4.108;2023-06-22T11:37:49;56.60;;;36.92;;
19434;SDS011;9853;50.848;4.108;2023-06-22T11:39:49;63.58;;;36.88;;
19434;SDS011;9853;50.848;4.108;2023-06-22T11:41:50;58.35;;;35.88;;
19434;SDS011;9853;50.848;4.108;2023-06-22T11:43:51;65.68;;;36.50;;
19434;SDS011;9853;50.848;4.108;2023-06-22T11:45:52;62.85;;;36.13;;
19434;SDS011;9853;50.848;4.108;2023-06-22T11:47:52;54.97;;;34.00;;
19434;SDS011;9853;50.848;4.108;2023-06-22T11:49:53;52.42;;;35.75;;
19434;SDS011;9853;50.848;4.108;2023-06-22T11:51:55;58.13;;;36.13;;
19434;SDS011;9853;50.848;4.108;2023-06-22T11:53:55;56.72;;;36.08;;
19434;SDS011;9853;50.848;4.108;2023-06-22T11:55:56;65.68;;;37.72;;
19434;SDS011;9853;50.848;4.108;2023-06-22T11:57:57;54.63;;;36.25;;
19434;SDS011;9853;50.848;4.108;2023-06-22T12:00:04;58.70;;;37.55;;
19434;SDS011;9853;50.848;4.108;2023-06-22T12:02:17;64.40;;;38.50;;
19434;SDS011;9853;50.848;4.108;2023-06-22T12:04:18;61.55;;;39.45;;
19434;SDS011;9853;50.848;4.108;2023-06-22T12:06:19;58.28;;;38.78;;
19434;SDS011;9853;50.848;4.108;2023-06-22T12:08:20;63.25;;;39.08;;
19434;SDS011;9853;50.848;4.108;2023-06-22T12:10:22;78.60;;;48.45;;
19434;SDS011;9853;50.848;4.108;2023-06-22T12:12:23;68.68;;;41.67;;
19434;SDS011;9853;50.848;4.108;2023-06-22T12:14:24;72.25;;;41.35;;